This is the latest recevied weather packets stored in our database for station/object KM4FZA. If no packets are shown the sender has not sent any weather packets the latest 10 day(s).
| Time | Temp. | Humidity | Pressure | Rain* | Wind** | Luminosity | Snow |
|---|---|---|---|---|---|---|---|
| 1777896316 | 7.78° C | 95% | 1020.1 hPa | 0 mm | - | - | - |
| 1777895721 | 7.22° C | 97% | 1020.3 hPa | 0 mm | - | - | - |
| 1777892731 | 5° C | 98% | 1020.1 hPa | 0 mm | - | - | - |
| 1777890950 | 5° C | 97% | 1019.9 hPa | 0 mm | - | - | - |
| 1777876517 | 6.67° C | 84% | 1019.8 hPa | 0 mm | - | - | - |
| 1777875923 | 6.67° C | 83% | 1019.9 hPa | 0 mm | - | - | - |
| 1777874736 | 7.22° C | 81% | 1020.1 hPa | 0 mm | - | - | - |
| 1777873521 | 7.22° C | 81% | 1020.1 hPa | 0 mm | - | - | - |
| 1777872941 | 7.22° C | 81% | 1020.1 hPa | 0 mm | - | - | - |
| 1777870519 | 7.22° C | 78% | 1020.1 hPa | 0 mm | - | - | - |
| 1777868717 | 7.78° C | 75% | 1020.2 hPa | 0 mm | - | - | - |
| 1777867536 | 7.78° C | 74% | 1020.3 hPa | 0 mm | - | - | - |
| 1777865726 | 7.78° C | 70% | 1020.3 hPa | 0 mm | - | - | - |
| 1777863925 | 7.78° C | 70% | 1020.3 hPa | 0 mm | - | - | - |
| 1777863330 | 7.78° C | 70% | 1020.1 hPa | 0 mm | - | - | - |
| 1777862718 | 8.33° C | 71% | 1020.1 hPa | 0 mm | - | - | - |
| 1777860322 | 8.33° C | 69% | 1019.7 hPa | 0 mm | - | - | - |
| 1777858541 | 9.44° C | 63% | 1019.4 hPa | 0 mm | - | - | - |
| 1777857926 | 9.44° C | 60% | 1019.3 hPa | 0 mm | - | - | - |
| 1777857331 | 10° C | 55% | 1019.3 hPa | 0 mm | - | - | - |
| 1777854938 | 12.22° C | 47% | 1018.9 hPa | 0 mm | - | - | - |
| 1777846523 | 22.22° C | 23% | 1019.1 hPa | 0 mm | - | - | - |
| 1777845316 | 22.22° C | 23% | 1019.3 hPa | 0 mm | - | - | - |
| 1777844127 | 21.67° C | 23% | 1019.4 hPa | 0 mm | - | - | - |
| 1777842920 | 21.11° C | 25% | 1019.6 hPa | 0 mm | - | - | - |
* Rain latest hour (hover to see other rain measurements)
** Current wind speed in m/s (hover to see current wind gust speed)